Time;durP1;ratioP1;P1;durP2;ratioP2;P2;SDS_P1;SDS_P2;PMS_P1;PMS_P2;Temp;Humidity;BMP_temperature;BMP_pressure;BME280_temperature;BME280_humidity;BME280_pressure;Samples;Min_cycle;Max_cycle;Signal;HPM_P1;HPM_P2
2023/07/21 03:00:57;;;;;;;9.63;5.10;;;;;;;11.89;100.00;95561.84;7425623;19;20391;-89
2023/07/21 03:03:32;;;;;;;6.50;4.43;;;;;;;12.52;100.00;95646.13;7397842;19;20394;-89
2023/07/21 03:06:07;;;;;;;6.03;3.60;;;;;;;12.22;100.00;95630.13;7400893;19;20364;-89
2023/07/21 03:08:35;;;;;;;6.63;3.90;;;;;;;12.79;100.00;95708.72;7399845;19;20928;-89
2023/07/21 03:11:06;;;;;;;6.50;4.57;;;;;;;12.98;100.00;95713.19;7397774;19;20400;-90
2023/07/21 03:13:44;;;;;;;7.23;3.60;;;;;;;12.84;100.00;95681.13;7400667;19;20400;-90
2023/07/21 03:16:14;;;;;;;8.10;3.70;;;;;;;12.89;100.00;95680.81;7399591;19;20409;-90
2023/07/21 03:18:48;;;;;;;7.97;4.70;;;;;;;13.03;100.00;95716.28;7402199;19;20461;-89
2023/07/21 03:21:18;;;;;;;9.10;4.10;;;;;;;11.89;100.00;95549.34;7401590;19;20392;-90
2023/07/21 03:23:46;;;;;;;4.27;3.90;;;;;;;11.31;100.00;95561.88;7401656;19;20397;-89
2023/07/21 03:26:20;;;;;;;6.87;4.40;;;;;;;12.54;100.00;95686.31;7398192;19;20373;-89
2023/07/21 03:28:48;;;;;;;5.60;4.33;;;;;;;12.93;100.00;95714.22;7401181;19;20464;-89
2023/07/21 03:31:15;;;;;;;7.70;4.70;;;;;;;11.93;100.00;95554.72;7399154;19;20375;-90
2023/07/21 03:33:51;;;;;;;6.70;3.97;;;;;;;12.86;100.00;95708.06;7401457;19;20357;-88
2023/07/21 03:36:20;;;;;;;4.77;4.37;;;;;;;11.95;100.00;95600.91;7398770;19;20377;-89
2023/07/21 03:38:48;;;;;;;7.63;4.40;;;;;;;11.89;100.00;95620.09;7397464;19;20921;-89
2023/07/21 03:41:16;;;;;;;5.70;5.13;;;;;;;11.76;100.00;95600.94;7399780;19;20698;-90
2023/07/21 03:43:44;;;;;;;5.53;4.67;;;;;;;12.55;100.00;95685.97;7396641;19;20436;-90
2023/07/21 03:46:12;;;;;;;9.90;5.30;;;;;;;13.19;100.00;95771.16;7400125;19;20452;-90
2023/07/21 03:48:59;;;;;;;5.90;4.47;;;;;;;11.69;100.00;95516.06;7399805;19;20408;-90
2023/07/21 03:51:27;;;;;;;6.20;4.37;;;;;;;12.97;100.00;95703.69;7399387;19;20395;-90
2023/07/21 03:53:58;;;;;;;4.97;4.20;;;;;;;12.82;100.00;95700.06;7400452;19;20406;-90
2023/07/21 03:56:25;;;;;;;4.67;4.27;;;;;;;13.03;100.00;95732.22;7403332;19;20394;-90
2023/07/21 03:58:53;;;;;;;9.03;4.60;;;;;;;12.73;100.00;95699.53;7399497;19;20421;-90
2023/07/21 04:01:21;;;;;;;4.70;3.63;;;;;;;12.82;100.00;95686.00;7398537;19;20386;-90
2023/07/21 04:03:48;;;;;;;8.37;4.07;;;;;;;11.58;100.00;95512.47;7399041;19;20471;-90
2023/07/21 04:06:17;;;;;;;7.93;4.60;;;;;;;12.52;100.00;95680.59;7397292;19;20465;-91
2023/07/21 04:08:45;;;;;;;5.70;4.73;;;;;;;10.81;100.00;95407.50;7398123;19;20377;-91
2023/07/21 04:11:12;;;;;;;5.87;4.30;;;;;;;10.70;100.00;95396.75;7397545;19;20734;-91
2023/07/21 04:13:40;;;;;;;5.57;4.03;;;;;;;11.03;100.00;95435.88;7400861;19;20385;-91
2023/07/21 04:16:07;;;;;;;8.73;4.50;;;;;;;12.24;100.00;95604.81;7397836;19;20405;-91
2023/07/21 04:18:38;;;;;;;5.60;3.87;;;;;;;12.65;100.00;95655.44;7398421;19;20400;-91
2023/07/21 04:21:06;;;;;;;4.20;3.80;;;;;;;12.20;100.00;95669.47;7397214;19;20382;-90
2023/07/21 04:23:34;;;;;;;7.30;4.70;;;;;;;12.45;100.00;95656.66;7398672;19;20381;-91
2023/07/21 04:26:15;;;;;;;4.60;4.03;;;;;;;12.03;100.00;95599.94;7395881;19;20379;-91
2023/07/21 04:28:49;;;;;;;5.70;4.20;;;;;;;11.79;100.00;95558.66;7399673;19;20409;-90
2023/07/21 04:31:22;;;;;;;5.87;4.17;;;;;;;12.18;100.00;95602.81;7398747;19;20405;-90
2023/07/21 04:34:04;;;;;;;17.87;5.07;;;;;;;12.41;100.00;95606.19;7394706;19;20381;-91
2023/07/21 04:36:47;;;;;;;6.67;4.67;;;;;;;11.40;100.00;95424.81;7394919;19;20399;-90
2023/07/21 04:39:37;;;;;;;5.10;4.60;;;;;;;11.87;100.00;95498.59;7395191;19;20393;-91
2023/07/21 04:42:06;;;;;;;7.07;4.57;;;;;;;12.11;100.00;95551.22;7394890;19;20405;-90
2023/07/21 04:44:34;;;;;;;4.60;4.17;;;;;;;13.53;100.00;95775.47;7399289;19;20437;-90
2023/07/21 04:47:08;;;;;;;5.20;4.63;;;;;;;12.60;100.00;95621.28;7397059;19;20468;-90
2023/07/21 04:49:48;;;;;;;3.93;3.63;;;;;;;11.02;100.00;95429.06;7399914;19;20423;-90
2023/07/21 04:52:31;;;;;;;6.37;4.10;;;;;;;11.55;100.00;95472.34;7399606;19;20454;-90
2023/07/21 04:54:59;;;;;;;4.53;4.20;;;;;;;13.00;100.00;95690.47;7396039;19;20405;-90
2023/07/21 04:57:28;;;;;;;7.77;4.73;;;;;;;12.50;100.00;95609.38;7399643;19;20442;-91
2023/07/21 05:00:21;;;;;;;5.23;4.50;;;;;;;12.06;100.00;95516.31;7398091;19;20433;-91
2023/07/21 05:03:39;;;;;;;10.50;4.70;;;;;;;13.84;100.00;95760.28;7401600;19;20455;-90
2023/07/21 05:06:22;;;;;;;4.67;4.20;;;;;;;12.25;100.00;95560.50;7398659;19;20390;-90
2023/07/21 05:09:10;;;;;;;6.83;4.40;;;;;;;11.62;100.00;95437.28;7397520;19;20418;-90
2023/07/21 05:11:58;;;;;;;4.33;3.93;;;;;;;12.73;100.00;95572.22;7401262;19;20375;-90
2023/07/21 05:15:22;;;;;;;5.00;4.60;;;;;;;12.69;100.00;95582.00;7400548;19;20387;-90
2023/07/21 05:18:51;;;;;;;7.13;5.40;;;;;;;12.59;100.00;95546.25;7396752;19;20424;-90
2023/07/21 05:21:53;;;;;;;7.47;4.10;;;;;;;11.77;100.00;95433.75;7395532;19;20715;-90
2023/07/21 05:24:46;;;;;;;5.03;4.17;;;;;;;12.45;100.00;95498.34;7393593;19;20408;-91
2023/07/21 05:31:08;;;;;;;5.90;4.13;;;;;;;12.57;100.00;95445.09;7395824;19;20391;-91
2023/07/21 05:49:02;;;;;;;;;;;;;;;;;;;;;
2023/07/21 06:08:09;;;;;;;4.60;4.20;;;;;;;14.37;100.00;95449.00;7401728;19;20357;-91
2023/07/21 07:00:50;;;;;;;5.37;3.67;;;;;;;17.40;100.00;95589.47;7436283;19;20439;-96
2023/07/21 07:03:35;;;;;;;3.93;3.50;;;;;;;16.98;100.00;95498.81;7435335;19;20398;-96
2023/07/21 07:06:36;;;;;;;4.27;3.50;;;;;;;18.52;100.00;95724.19;7433444;19;20396;-95
2023/07/21 07:09:17;;;;;;;4.07;3.20;;;;;;;18.54;100.00;95703.91;7435099;19;20429;-95
2023/07/21 07:12:06;;;;;;;3.40;2.60;;;;;;;18.67;100.00;95714.19;7434866;19;20412;-96
2023/07/21 07:14:40;;;;;;;3.77;3.47;;;;;;;18.77;100.00;95714.09;7434496;19;20414;-96
2023/07/21 07:17:18;;;;;;;3.90;3.20;;;;;;;17.72;100.00;95565.28;7434992;19;20403;-95
2023/07/21 07:22:49;;;;;;;3.30;3.00;;;;;;;16.49;100.00;95388.34;7434327;19;20383;-96
2023/07/21 07:25:24;;;;;;;5.80;3.33;;;;;;;17.59;100.00;95553.47;7435630;19;20439;-96
2023/07/21 07:28:08;;;;;;;3.60;3.27;;;;;;;17.64;100.00;95565.69;7432552;19;20387;-96
2023/07/21 07:30:54;;;;;;;2.80;2.60;;;;;;;17.00;100.00;95416.38;7428930;19;20427;-96
2023/07/21 07:33:33;;;;;;;6.30;5.43;;;;;;;18.17;100.00;95653.69;7436058;19;20405;-96
2023/07/21 07:36:13;;;;;;;7.37;4.73;;;;;;;16.91;100.00;95422.13;7434252;19;20460;-96
2023/07/21 07:38:55;;;;;;;5.73;4.90;;;;;;;17.16;100.00;95418.59;7432696;19;20386;-95
2023/07/21 07:41:44;;;;;;;3.87;3.57;;;;;;;17.82;100.00;95555.66;7435219;19;20397;-95
2023/07/21 07:44:22;;;;;;;3.80;3.50;;;;;;;18.93;100.00;95704.81;7433687;19;20395;-95
2023/07/21 07:47:09;;;;;;;5.27;3.90;;;;;;;19.18;100.00;95675.88;7432974;19;20391;-95
2023/07/21 07:49:48;;;;;;;3.97;3.00;;;;;;;18.76;100.00;95567.19;7434026;19;20430;-94
2023/07/21 07:52:28;;;;;;;3.27;2.80;;;;;;;20.37;98.71;95717.81;7433755;19;20393;-95
2023/07/21 07:55:05;;;;;;;3.30;3.00;;;;;;;19.95;94.64;95568.84;7432654;19;20388;-95
2023/07/21 07:57:40;;;;;;;3.13;2.93;;;;;;;18.95;91.31;95437.25;7434154;19;20386;-95
2023/07/21 08:00:14;;;;;;;6.97;3.50;;;;;;;19.11;91.73;95525.88;7431099;19;20456;-95
2023/07/21 08:03:04;;;;;;;2.60;2.30;;;;;;;20.34;91.19;95729.38;7434968;19;20404;-95
2023/07/21 08:05:49;;;;;;;3.03;2.80;;;;;;;18.42;88.77;95374.34;7433609;19;20408;-95
2023/07/21 08:08:26;;;;;;;4.17;2.77;;;;;;;20.02;88.90;95573.34;7430661;19;20452;-95
2023/07/21 08:11:05;;;;;;;6.80;4.27;;;;;;;20.48;86.95;95664.00;7434710;19;20386;-95
2023/07/21 08:13:45;;;;;;;3.70;3.40;;;;;;;19.78;88.52;95506.25;7433100;19;20405;-96
2023/07/21 08:16:18;;;;;;;3.27;2.97;;;;;;;19.35;86.70;95361.25;7432576;19;20409;-95
2023/07/21 08:18:56;;;;;;;3.90;3.60;;;;;;;21.73;83.05;95713.75;7433063;19;20382;-94
2023/07/21 08:21:28;;;;;;;5.43;3.00;;;;;;;20.52;81.30;95538.44;7429476;19;20391;-96
2023/07/21 09:31:44;;;;;;;4.23;3.20;;;;;;;22.37;66.21;95591.25;7430073;19;20400;-93
2023/07/21 09:34:11;;;;;;;3.40;3.13;;;;;;;23.17;65.38;95626.66;7427067;19;20415;-92
2023/07/21 09:36:44;;;;;;;2.97;2.30;;;;;;;23.46;66.31;95672.50;7427629;19;20399;-92
2023/07/21 09:39:18;;;;;;;3.97;2.80;;;;;;;23.27;64.88;95606.72;7425560;19;20387;-92
2023/07/21 09:41:48;;;;;;;7.20;2.30;;;;;;;22.76;63.14;95586.84;7433639;19;20399;-93
2023/07/21 09:44:19;;;;;;;4.87;3.07;;;;;;;21.94;62.46;95534.91;7432942;19;20427;-93
2023/07/21 09:46:55;;;;;;;4.40;3.20;;;;;;;21.21;65.89;95512.59;7435090;19;20425;-93
2023/07/21 09:49:26;;;;;;;3.70;2.97;;;;;;;22.57;66.75;95719.75;7434408;19;20376;-94
2023/07/21 09:51:57;;;;;;;5.67;2.50;;;;;;;22.42;63.63;95630.38;7431758;19;20443;-94
2023/07/21 09:54:35;;;;;;;2.70;2.33;;;;;;;22.68;63.65;95683.28;7430860;19;20444;-93
2023/07/21 09:57:22;;;;;;;3.97;2.13;;;;;;;22.29;63.92;95529.88;7432562;19;20395;-92
2023/07/21 10:00:14;;;;;;;3.50;2.30;;;;;;;23.43;61.37;95716.56;7434941;19;20370;-93
2023/07/21 10:03:20;;;;;;;4.80;2.53;;;;;;;22.76;60.36;95530.25;7430279;19;20375;-92
2023/07/21 10:06:06;;;;;;;3.17;2.30;;;;;;;23.21;60.93;95630.00;7431223;19;20410;-94
2023/07/21 10:09:09;;;;;;;2.63;2.20;;;;;;;22.99;61.27;95599.41;7431733;19;20434;-93
2023/07/21 10:12:23;;;;;;;5.13;2.90;;;;;;;22.61;60.86;95586.44;7433569;19;20404;-93
2023/07/21 10:15:21;;;;;;;3.87;2.97;;;;;;;23.14;61.52;95705.72;7426393;19;20431;-93
2023/07/21 10:18:06;;;;;;;2.90;2.60;;;;;;;22.66;62.54;95661.38;7426910;19;20408;-92
2023/07/21 10:20:56;;;;;;;3.27;2.90;;;;;;;22.74;62.13;95618.09;7432282;19;20368;-94
2023/07/21 10:23:51;;;;;;;2.60;2.40;;;;;;;21.97;62.01;95514.44;7429697;19;20383;-93
2023/07/21 10:26:30;;;;;;;3.00;2.70;;;;;;;22.90;61.67;95604.63;7430304;19;20394;-93
2023/07/21 10:29:15;;;;;;;2.83;2.43;;;;;;;24.23;60.11;95700.50;7434297;19;20395;-93
2023/07/21 10:31:54;;;;;;;10.17;2.50;;;;;;;24.13;60.68;95596.97;7431801;19;20386;-93
2023/07/21 10:34:34;;;;;;;4.23;2.30;;;;;;;23.05;58.57;95476.31;7428485;19;20451;-93
2023/07/21 10:37:19;;;;;;;5.90;2.53;;;;;;;23.14;58.74;95489.19;7427047;19;20390;-93
2023/07/21 10:40:10;;;;;;;3.83;2.37;;;;;;;23.12;58.56;95513.16;7430629;19;20405;-93
2023/07/21 10:42:44;;;;;;;3.93;2.73;;;;;;;22.38;57.12;95478.84;7430629;19;20385;-92
2023/07/21 10:45:25;;;;;;;4.13;2.83;;;;;;;22.30;58.08;95550.25;7429628;19;20446;-92
2023/07/21 10:48:15;;;;;;;5.07;2.40;;;;;;;23.39;57.06;95671.97;7426629;19;20383;-93
2023/07/21 10:50:58;;;;;;;5.10;2.50;;;;;;;22.31;57.68;95544.47;7429578;19;20390;-92
2023/07/21 10:53:40;;;;;;;2.10;2.00;;;;;;;22.13;58.10;95509.84;7426244;19;20395;-92
2023/07/21 10:56:59;;;;;;;8.13;2.40;;;;;;;21.88;58.57;95449.69;7427735;19;20919;-93
2023/07/21 10:59:48;;;;;;;2.33;2.13;;;;;;;22.38;56.43;95487.69;7427661;19;20403;-93
2023/07/21 11:02:34;;;;;;;2.67;2.40;;;;;;;23.27;54.54;95587.09;7431596;19;20393;-92
2023/07/21 11:05:18;;;;;;;2.30;2.10;;;;;;;22.48;56.60;95467.06;7429213;19;20410;-92
2023/07/21 11:08:04;;;;;;;3.20;2.73;;;;;;;23.59;54.72;95678.75;7429451;19;20386;-93
2023/07/21 11:11:01;;;;;;;3.47;2.17;;;;;;;23.39;54.08;95666.56;7432455;19;20402;-93
2023/07/21 11:13:43;;;;;;;13.80;2.40;;;;;;;22.89;53.90;95554.59;7430526;19;20438;-93
2023/07/21 11:16:41;;;;;;;1.90;1.67;;;;;;;23.70;53.74;95670.34;7429560;19;20426;-94
2023/07/21 11:19:34;;;;;;;5.07;2.20;;;;;;;22.38;54.13;95521.97;7429122;19;20392;-92
2023/07/21 11:22:06;;;;;;;2.73;2.53;;;;;;;23.20;54.67;95643.91;7429133;19;20402;-92
2023/07/21 11:24:38;;;;;;;2.77;2.53;;;;;;;22.88;53.21;95590.81;7429279;19;20466;-95
2023/07/21 11:27:12;;;;;;;1.97;1.60;;;;;;;23.49;53.06;95684.41;7430537;19;20403;-93
2023/07/21 11:29:46;;;;;;;2.43;2.30;;;;;;;22.00;53.53;95473.22;7430248;19;20371;-93
2023/07/21 11:32:22;;;;;;;2.60;1.77;;;;;;;22.31;52.85;95551.78;7429424;19;20376;-93
2023/07/21 11:35:02;;;;;;;8.00;2.37;;;;;;;22.24;53.66;95560.78;7430763;19;20465;-93
2023/07/21 11:37:44;;;;;;;3.30;2.60;;;;;;;22.27;53.81;95519.53;7430630;19;20402;-94
2023/07/21 11:40:24;;;;;;;3.90;2.60;;;;;;;23.71;53.02;95674.56;7432290;19;20402;-93
2023/07/21 11:42:58;;;;;;;6.37;2.47;;;;;;;22.48;52.32;95466.31;7430420;19;20383;-93
2023/07/21 11:45:43;;;;;;;2.47;2.27;;;;;;;22.27;53.53;95471.03;7428587;19;20444;-93
2023/07/21 11:48:15;;;;;;;2.67;2.47;;;;;;;24.28;51.92;95643.22;7431205;19;20395;-94
2023/07/21 11:51:04;;;;;;;3.10;2.40;;;;;;;23.77;51.68;95670.19;7430045;19;20386;-93
2023/07/21 11:53:51;;;;;;;2.80;2.50;;;;;;;22.90;52.47;95548.75;7428486;19;20384;-91
2023/07/21 11:56:30;;;;;;;3.77;2.77;;;;;;;22.33;56.85;95535.94;7430721;19;20386;-93
2023/07/21 11:59:11;;;;;;;4.50;3.33;;;;;;;22.36;60.45;95545.88;7429996;19;20513;-92
2023/07/21 12:01:38;;;;;;;2.60;2.40;;;;;;;23.31;58.36;95552.66;7428233;19;20415;-94
2023/07/21 12:04:06;;;;;;;3.10;2.83;;;;;;;24.01;57.34;95502.44;7427685;19;20442;-93
2023/07/21 12:06:37;;;;;;;2.63;2.33;;;;;;;24.20;58.62;95555.47;7428201;19;20379;-94
2023/07/21 12:09:09;;;;;;;3.63;3.00;;;;;;;22.92;61.06;95561.81;7428813;19;20383;-94
2023/07/21 12:11:41;;;;;;;4.27;2.67;;;;;;;22.41;63.39;95488.78;7430141;19;20382;-93
2023/07/21 12:14:09;;;;;;;3.83;3.53;;;;;;;23.21;61.33;95559.88;7429890;19;20436;-93
2023/07/21 12:16:45;;;;;;;3.17;2.43;;;;;;;23.66;62.61;95647.34;7432496;19;20404;-93
2023/07/21 12:19:21;;;;;;;3.03;2.80;;;;;;;22.49;63.16;95473.97;7434788;19;20396;-93
2023/07/21 12:21:58;;;;;;;3.40;3.10;;;;;;;22.77;65.92;95617.25;7428481;19;20425;-93
2023/07/21 12:24:26;;;;;;;8.90;4.00;;;;;;;22.05;66.09;95523.91;7427419;19;20416;-93
2023/07/21 12:26:53;;;;;;;16.57;4.27;;;;;;;22.51;64.49;95584.00;7428892;19;20382;-93
2023/07/21 12:29:21;;;;;;;8.73;4.43;;;;;;;22.00;66.69;95557.44;7424795;19;20439;-93
2023/07/21 12:32:14;;;;;;;7.30;4.03;;;;;;;22.42;66.11;95616.91;7429294;19;20423;-93
2023/07/21 12:34:47;;;;;;;2.90;2.60;;;;;;;21.05;64.68;95488.34;7426752;19;20414;-94
2023/07/21 12:37:32;;;;;;;8.30;3.63;;;;;;;22.33;64.85;95614.06;7427056;19;20379;-94
2023/07/21 12:40:05;;;;;;;4.33;3.03;;;;;;;22.55;63.90;95628.53;7430636;19;20383;-94
2023/07/21 12:42:33;;;;;;;3.20;2.90;;;;;;;21.70;62.37;95510.06;7427117;19;20405;-93
2023/07/21 12:45:06;;;;;;;3.07;2.50;;;;;;;21.95;64.62;95614.50;7426537;19;20455;-94
2023/07/21 12:47:37;;;;;;;3.70;3.00;;;;;;;21.22;64.72;95586.69;7425475;19;20376;-92
2023/07/21 12:50:10;;;;;;;2.60;2.40;;;;;;;20.39;62.91;95478.41;7429414;19;20386;-94
2023/07/21 12:52:37;;;;;;;3.87;2.50;;;;;;;20.80;62.86;95450.44;7427603;19;20422;-93
2023/07/21 12:55:10;;;;;;;3.60;2.43;;;;;;;21.29;63.01;95531.31;7423291;19;20402;-93
2023/07/21 12:57:48;;;;;;;3.10;2.60;;;;;;;21.98;62.87;95661.34;7420572;19;20375;-93
2023/07/21 13:00:28;;;;;;;2.63;2.40;;;;;;;22.15;61.88;95589.47;7418305;19;20387;-93
2023/07/21 13:03:05;;;;;;;6.23;2.83;;;;;;;23.27;60.77;95665.31;7421400;19;20396;-94
2023/07/21 13:05:54;;;;;;;3.93;2.40;;;;;;;22.28;60.99;95553.34;7418460;19;20436;-94
2023/07/21 13:08:33;;;;;;;3.30;2.43;;;;;;;22.71;58.98;95563.09;7418255;19;20375;-93
2023/07/21 13:11:14;;;;;;;4.53;2.40;;;;;;;23.09;58.77;95574.06;7425902;19;20390;-93
2023/07/21 13:13:51;;;;;;;7.13;2.70;;;;;;;23.82;58.10;95550.06;7423297;19;20387;-93
2023/07/21 13:16:23;;;;;;;2.40;2.20;;;;;;;23.98;55.17;95546.50;7417304;19;20447;-94
2023/07/21 13:19:16;;;;;;;3.33;3.07;;;;;;;25.05;53.17;95654.75;7417465;19;20393;-93
2023/07/21 13:21:49;;;;;;;3.53;2.70;;;;;;;25.03;53.48;95546.22;7417460;19;20380;-92
2023/07/21 13:24:28;;;;;;;2.80;2.30;;;;;;;23.88;52.75;95551.03;7408682;19;20414;-93
2023/07/21 13:27:04;;;;;;;4.20;2.37;;;;;;;24.05;52.90;95482.22;7412987;19;20930;-93
2023/07/21 13:29:46;;;;;;;3.00;1.93;;;;;;;24.01;53.77;95500.47;7411546;19;20387;-93
2023/07/21 13:32:58;;;;;;;6.10;3.10;;;;;;;25.30;53.65;95649.25;7412887;19;20388;-93
2023/07/21 13:35:55;;;;;;;3.47;2.97;;;;;;;25.02;52.72;95653.69;7409114;19;20467;-93
2023/07/21 13:38:52;;;;;;;2.73;2.53;;;;;;;23.50;53.00;95434.94;7409707;19;20396;-92
2023/07/21 13:41:49;;;;;;;3.80;2.00;;;;;;;25.16;51.91;95648.97;7411468;19;20394;-93
2023/07/21 13:45:01;;;;;;;2.37;2.17;;;;;;;23.96;53.38;95562.41;7400306;19;20433;-93
2023/07/21 13:48:22;;;;;;;;;;;;;;;;;;;;;
2023/07/21 13:51:14;;;;;;;1.90;1.80;;;;;;;23.48;52.76;95529.81;7427701;19;20399;-94
2023/07/21 13:54:37;;;;;;;4.40;2.67;;;;;;;24.14;53.36;95628.19;7405696;19;20420;-93
2023/07/21 13:57:26;;;;;;;4.17;2.37;;;;;;;23.09;53.25;95487.75;7407347;19;20377;-92
2023/07/21 14:00:21;;;;;;;2.70;2.50;;;;;;;23.05;54.29;95432.41;7407541;19;20390;-92
2023/07/21 14:03:18;;;;;;;2.30;2.00;;;;;;;23.79;53.63;95513.16;7406979;19;20433;-92
2023/07/21 14:06:40;;;;;;;2.10;1.90;;;;;;;23.35;51.16;95428.47;7409123;19;20404;-93
2023/07/21 14:09:26;;;;;;;3.13;2.50;;;;;;;24.22;52.03;95534.19;7412854;19;20462;-93
2023/07/21 14:12:08;;;;;;;3.80;2.17;;;;;;;23.30;52.37;95454.78;7423010;19;20375;-94
2023/07/21 14:14:39;;;;;;;3.27;2.30;;;;;;;23.75;52.98;95451.13;7420957;19;20439;-93
2023/07/21 14:17:28;;;;;;;4.10;2.80;;;;;;;25.41;49.47;95618.34;7422489;19;20383;-93
2023/07/21 14:20:21;;;;;;;4.37;3.00;;;;;;;23.74;51.18;95411.09;7420244;19;20424;-92
2023/07/21 14:22:51;;;;;;;5.20;2.67;;;;;;;23.45;50.03;95492.91;7416110;19;20424;-93
2023/07/21 14:26:07;;;;;;;4.57;2.43;;;;;;;24.38;51.94;95617.09;7406951;19;20466;-93
2023/07/21 14:32:33;;;;;;;2.53;1.90;;;;;;;24.73;49.10;95574.66;7423792;19;20415;-93
2023/07/21 16:31:10;;;;;;;4.70;2.77;;;;;;;21.99;57.21;95671.69;7402435;19;20394;-91
2023/07/21 16:33:37;;;;;;;5.83;2.40;;;;;;;20.60;58.28;95547.16;7409680;19;20387;-90
2023/07/21 16:36:04;;;;;;;4.40;2.63;;;;;;;20.67;58.59;95542.41;7429997;19;20416;-91
2023/07/21 16:38:32;;;;;;;3.57;2.83;;;;;;;21.06;57.59;95556.31;7418369;19;20426;-90
2023/07/21 16:41:01;;;;;;;4.13;2.70;;;;;;;21.34;58.32;95624.94;7394582;19;20407;-90
2023/07/21 16:43:28;;;;;;;4.40;2.67;;;;;;;20.80;58.25;95542.56;7396188;19;20377;-89
2023/07/21 16:45:55;;;;;;;3.83;2.70;;;;;;;20.32;60.01;95559.09;7396322;19;20397;-90
2023/07/21 16:48:23;;;;;;;3.40;2.50;;;;;;;20.69;59.85;95598.41;7395692;19;20361;-90
2023/07/21 16:50:51;;;;;;;3.43;2.50;;;;;;;21.19;60.25;95699.72;7394872;19;20434;-90
2023/07/21 16:53:18;;;;;;;2.60;2.40;;;;;;;19.96;65.31;95726.03;7395053;19;20388;-89
2023/07/21 16:55:48;;;;;;;4.13;3.40;;;;;;;19.31;68.52;95662.72;7395758;19;20891;-90
2023/07/21 16:58:18;;;;;;;8.00;3.17;;;;;;;17.86;71.92;95542.28;7395366;19;20391;-89
2023/07/21 17:00:45;;;;;;;2.73;2.40;;;;;;;18.49;72.89;95682.16;7397946;19;20431;-90
2023/07/21 17:03:15;;;;;;;3.97;3.50;;;;;;;16.54;76.58;95470.69;7399482;19;20371;-90
2023/07/21 17:05:42;;;;;;;4.07;3.20;;;;;;;18.54;80.92;95783.47;7395883;19;20379;-90
2023/07/21 17:08:09;;;;;;;4.43;3.10;;;;;;;16.86;83.28;95526.69;7400557;19;20385;-90
2023/07/21 17:10:37;;;;;;;3.60;3.00;;;;;;;17.34;89.52;95659.72;7398431;19;20446;-90
2023/07/21 17:13:04;;;;;;;5.53;3.47;;;;;;;16.80;94.98;95592.28;7399884;19;20396;-90
2023/07/21 17:15:31;;;;;;;4.40;3.30;;;;;;;16.80;97.08;95606.41;7399900;19;20398;-90
2023/07/21 17:17:59;;;;;;;5.93;2.50;;;;;;;17.17;97.15;95634.56;7401064;19;20406;-90
2023/07/21 17:20:27;;;;;;;3.70;2.67;;;;;;;17.36;100.00;95694.84;7405685;19;20451;-90
2023/07/21 17:22:56;;;;;;;2.77;2.57;;;;;;;16.67;100.00;95682.69;7404636;19;20730;-90
2023/07/21 17:25:26;;;;;;;4.67;3.37;;;;;;;16.72;100.00;95788.34;7412290;19;20391;-89
2023/07/21 17:31:07;;;;;;;4.37;3.70;;;;;;;15.11;100.00;95634.97;7404838;19;20418;-89
2023/07/21 17:33:35;;;;;;;4.03;3.63;;;;;;;14.98;100.00;95668.34;7402232;19;20476;-89
2023/07/21 17:36:02;;;;;;;4.17;3.77;;;;;;;13.32;100.00;95435.31;7397966;19;20410;-90
2023/07/21 17:38:29;;;;;;;4.87;4.00;;;;;;;13.60;100.00;95461.34;7395995;19;20402;-89
2023/07/21 17:41:03;;;;;;;5.70;3.63;;;;;;;14.67;100.00;95638.44;7399143;19;20962;-89
2023/07/21 17:43:31;;;;;;;4.10;3.60;;;;;;;14.03;100.00;95589.28;7396001;19;20382;-89
2023/07/21 17:46:01;;;;;;;3.63;3.43;;;;;;;14.98;100.00;95780.16;7403401;19;20934;-88
2023/07/21 17:48:31;;;;;;;4.20;3.80;;;;;;;14.06;100.00;95642.47;7397313;19;20361;-88
2023/07/21 17:50:59;;;;;;;4.17;3.77;;;;;;;14.73;100.00;95724.81;7397793;19;20394;-88
2023/07/21 17:53:26;;;;;;;4.43;3.90;;;;;;;14.97;100.00;95755.44;7407414;19;20921;-88
2023/07/21 17:55:53;;;;;;;7.33;3.97;;;;;;;14.89;100.00;95731.78;7413999;19;20383;-88
2023/07/21 17:58:22;;;;;;;4.63;4.23;;;;;;;13.85;100.00;95589.09;7415796;19;20377;-88
2023/07/21 18:00:50;;;;;;;6.13;4.63;;;;;;;14.40;100.00;95698.25;7411488;19;20416;-88
2023/07/21 18:03:17;;;;;;;4.80;4.40;;;;;;;13.50;100.00;95537.16;7404564;19;20374;-88
2023/07/21 18:05:46;;;;;;;5.60;4.97;;;;;;;13.65;100.00;95554.00;7403613;19;20382;-89
2023/07/21 18:08:13;;;;;;;4.27;3.60;;;;;;;14.73;100.00;95758.63;7403803;19;20394;-89
2023/07/21 18:10:40;;;;;;;4.20;3.90;;;;;;;14.86;100.00;95783.09;7404656;19;20394;-89
2023/07/21 18:13:09;;;;;;;4.70;4.30;;;;;;;14.44;100.00;95659.94;7428004;19;20435;-89
2023/07/21 18:15:37;;;;;;;5.17;4.63;;;;;;;15.10;100.00;95761.25;7430556;19;20390;-89
2023/07/21 18:18:06;;;;;;;5.47;4.80;;;;;;;15.12;100.00;95803.47;7409263;19;20394;-89
2023/07/21 18:20:33;;;;;;;4.37;3.97;;;;;;;14.85;100.00;95762.94;7409609;19;20416;-90
2023/07/21 18:23:02;;;;;;;5.20;4.00;;;;;;;15.10;100.00;95798.53;7408205;19;20382;-90
2023/07/21 18:25:30;;;;;;;4.50;4.10;;;;;;;14.94;100.00;95779.34;7403546;19;20379;-90
2023/07/21 18:27:57;;;;;;;4.13;3.73;;;;;;;14.98;100.00;95764.94;7407165;19;20358;-89
2023/07/21 18:30:24;;;;;;;4.37;4.00;;;;;;;13.77;100.00;95649.38;7398640;19;20418;-88
2023/07/21 18:32:51;;;;;;;4.50;4.13;;;;;;;14.62;100.00;95729.25;7401585;19;20437;-89
2023/07/21 18:38:42;;;;;;;4.33;3.83;;;;;;;15.13;100.00;95773.81;7398600;19;20360;-89
2023/07/21 18:41:09;;;;;;;4.20;3.90;;;;;;;14.76;100.00;95710.00;7398313;19;20690;-89
2023/07/21 18:43:37;;;;;;;3.83;3.53;;;;;;;14.26;100.00;95687.47;7398091;19;20399;-89
2023/07/21 18:46:04;;;;;;;4.80;4.40;;;;;;;14.03;100.00;95677.00;7397829;19;20373;-89
2023/07/21 18:48:32;;;;;;;4.50;3.23;;;;;;;14.35;100.00;95704.66;7399277;19;20386;-89
2023/07/21 18:51:00;;;;;;;5.07;4.57;;;;;;;14.24;100.00;95705.69;7394443;19;20418;-89
2023/07/21 18:53:27;;;;;;;4.90;4.37;;;;;;;13.34;100.00;95576.41;7397464;19;20755;-89
2023/07/21 18:55:54;;;;;;;4.13;3.57;;;;;;;14.84;100.00;95783.47;7396802;19;20391;-89
2023/07/21 18:58:21;;;;;;;4.27;3.60;;;;;;;14.82;100.00;95760.97;7397525;19;20389;-89
2023/07/21 19:00:48;;;;;;;4.50;3.90;;;;;;;14.16;100.00;95710.94;7394504;19;20478;-89
2023/07/21 19:03:16;;;;;;;5.17;4.77;;;;;;;14.94;100.00;95808.63;7397075;19;20383;-89
2023/07/21 19:05:43;;;;;;;3.67;3.37;;;;;;;12.93;100.00;95557.69;7397411;19;20467;-89
2023/07/21 19:08:10;;;;;;;3.37;3.07;;;;;;;14.14;100.00;95747.75;7396890;19;20704;-89
2023/07/21 19:10:40;;;;;;;3.90;3.60;;;;;;;13.74;100.00;95665.28;7395611;19;20453;-89
2023/07/21 19:13:07;;;;;;;3.10;2.90;;;;;;;13.90;100.00;95681.81;7396575;19;20395;-89
2023/07/21 19:15:37;;;;;;;3.30;3.00;;;;;;;14.67;100.00;95766.16;7398156;19;20790;-89
2023/07/21 19:18:04;;;;;;;3.50;3.20;;;;;;;14.28;100.00;95764.97;7399505;19;20734;-89
2023/07/21 19:20:31;;;;;;;4.47;3.43;;;;;;;15.04;100.00;95885.16;7398132;19;20426;-90
2023/07/21 19:23:01;;;;;;;4.10;3.37;;;;;;;14.94;100.00;95851.22;7399800;19;20714;-90
2023/07/21 19:25:28;;;;;;;4.17;3.87;;;;;;;14.31;100.00;95772.25;7403385;19;20382;-90
2023/07/21 20:00:42;;;;;;;4.20;3.80;;;;;;;12.53;100.00;95637.81;7398236;19;20401;-90
2023/07/21 20:03:09;;;;;;;3.47;3.17;;;;;;;14.41;100.00;95902.69;7400265;19;20391;-90
2023/07/21 20:05:37;;;;;;;7.00;4.13;;;;;;;13.20;100.00;95672.56;7401437;19;20483;-90
2023/07/21 20:08:04;;;;;;;5.70;3.40;;;;;;;14.74;100.00;95869.28;7399687;19;20379;-90
2023/07/21 20:10:31;;;;;;;3.13;2.93;;;;;;;13.64;100.00;95782.81;7399093;19;20418;-90
2023/07/21 20:12:58;;;;;;;4.37;3.60;;;;;;;13.56;100.00;95763.34;7398455;19;20382;-90
2023/07/21 20:19:28;;;;;;;4.20;3.90;;;;;;;13.49;100.00;95718.88;7402062;19;20380;-90
2023/07/21 22:35:12;;;;;;;5.30;4.80;;;;;;;12.32;100.00;95863.59;7374445;19;20516;-91
2023/07/21 22:37:39;;;;;;;5.60;5.10;;;;;;;12.34;100.00;95855.28;7402139;19;20358;-91
2023/07/21 22:40:07;;;;;;;6.90;5.90;;;;;;;12.51;100.00;95902.59;7402817;19;20421;-91
2023/07/21 22:42:34;;;;;;;5.60;4.60;;;;;;;12.50;100.00;95950.66;7402556;19;20372;-91
2023/07/21 22:45:02;;;;;;;5.63;5.23;;;;;;;11.99;100.00;95910.94;7403367;19;20411;-91
2023/07/21 22:47:29;;;;;;;5.80;5.30;;;;;;;12.47;100.00;96017.66;7398832;19;20507;-91
2023/07/21 22:49:56;;;;;;;5.50;3.97;;;;;;;12.41;100.00;96020.56;7402893;19;20420;-91